Time;durP1;ratioP1;P1;durP2;ratioP2;P2;SDS_P1;SDS_P2;PMS_P1;PMS_P2;Temp;Humidity;BMP_temperature;BMP_pressure;BME280_temperature;BME280_humidity;BME280_pressure;Samples;Min_cycle;Max_cycle;Signal;HPM_P1;HPM_P2
2023/06/16 00:02:21;;;;;;;13.23;11.98;;;;;;;16.28;100.00;101850.88;5012194;28;20270;-50
2023/06/16 00:04:49;;;;;;;13.93;11.70;;;;;;;16.23;100.00;101851.03;5011795;28;20034;-50
2023/06/16 00:07:19;;;;;;;13.30;11.90;;;;;;;15.83;100.00;101787.13;5006211;28;20064;-53
2023/06/16 00:09:45;;;;;;;12.70;11.43;;;;;;;16.21;100.00;101860.00;5013478;28;20030;-51
2023/06/16 00:12:10;;;;;;;13.63;12.20;;;;;;;16.18;100.00;101858.34;5015246;28;20700;-48
2023/06/16 00:14:35;;;;;;;13.25;11.95;;;;;;;15.93;100.00;101811.56;4997951;28;20042;-51
2023/06/16 00:17:03;;;;;;;13.82;12.48;;;;;;;16.12;100.00;101852.38;5009401;28;20038;-49
2023/06/16 00:19:29;;;;;;;13.88;12.02;;;;;;;15.71;100.00;101782.31;4998141;28;20477;-47
2023/06/16 00:21:59;;;;;;;14.25;12.68;;;;;;;15.73;100.00;101789.28;5015311;28;20045;-47
2023/06/16 00:24:25;;;;;;;13.80;12.37;;;;;;;16.08;100.00;101854.28;4998152;28;20049;-51
2023/06/16 00:26:50;;;;;;;13.18;11.18;;;;;;;15.59;100.00;101774.81;5015378;28;20030;-50
2023/06/16 00:29:15;;;;;;;13.95;12.55;;;;;;;16.02;100.00;101849.25;5026818;28;20084;-48
2023/06/16 00:31:40;;;;;;;12.30;11.20;;;;;;;16.01;100.00;101851.94;5034811;28;20431;-49
2023/06/16 00:34:06;;;;;;;14.73;13.32;;;;;;;15.97;100.00;101848.53;5033703;28;20068;-52
2023/06/16 00:36:31;;;;;;;13.38;12.20;;;;;;;15.82;100.00;101827.03;5034827;28;20037;-49
2023/06/16 00:38:57;;;;;;;14.45;12.48;;;;;;;15.89;100.00;101845.31;5017031;28;20120;-51
2023/06/16 00:41:22;;;;;;;13.60;12.27;;;;;;;15.71;100.00;101814.16;5034839;28;20069;-47
2023/06/16 00:43:47;;;;;;;14.07;12.27;;;;;;;15.88;100.00;101850.69;5034587;28;20485;-49
2023/06/16 00:46:28;;;;;;;13.27;11.73;;;;;;;15.37;100.00;101755.28;5033003;28;20030;-47
2023/06/16 00:48:55;;;;;;;18.75;12.00;;;;;;;15.75;100.00;101815.78;5012253;28;20042;-47
2023/06/16 00:51:20;;;;;;;12.80;11.60;;;;;;;15.86;100.00;101842.78;5014634;28;20037;-49
2023/06/16 00:53:46;;;;;;;13.02;11.43;;;;;;;15.10;100.00;101712.97;5017055;28;20095;-46
2023/06/16 00:56:12;;;;;;;15.52;11.77;;;;;;;15.50;100.00;101785.81;5017033;28;20063;-48
2023/06/16 00:58:37;;;;;;;12.32;11.23;;;;;;;15.81;100.00;101843.88;5034437;28;20069;-46
2023/06/16 01:01:03;;;;;;;12.85;11.65;;;;;;;15.39;100.00;101769.34;5016362;28;20037;-48
2023/06/16 01:03:29;;;;;;;14.45;12.20;;;;;;;15.69;100.00;101824.84;5034253;28;20448;-48
2023/06/16 01:05:56;;;;;;;12.70;11.60;;;;;;;15.30;100.00;101767.03;5016376;28;20061;-47
2023/06/16 01:08:38;;;;;;;12.98;11.77;;;;;;;15.53;100.00;101806.88;5015712;28;20072;-47
2023/06/16 01:11:17;;;;;;;14.02;12.73;;;;;;;15.35;100.00;101778.38;5016225;28;20022;-48
2023/06/16 01:13:56;;;;;;;13.88;12.48;;;;;;;15.73;100.00;101844.19;5016559;28;20064;-50
2023/06/16 01:16:23;;;;;;;15.20;13.65;;;;;;;15.72;100.00;101832.69;5034233;28;20037;-49
2023/06/16 01:18:51;;;;;;;15.23;11.98;;;;;;;15.66;100.00;101821.44;5016284;28;20040;-49
2023/06/16 01:21:37;;;;;;;14.00;12.60;;;;;;;15.75;100.00;101834.38;5032264;28;20124;-48
2023/06/16 01:24:07;;;;;;;14.48;12.98;;;;;;;15.36;100.00;101767.69;5032731;28;20048;-47
2023/06/16 01:26:35;;;;;;;18.67;12.77;;;;;;;15.33;100.00;101757.19;5016420;28;20469;-50
2023/06/16 01:29:05;;;;;;;15.35;12.95;;;;;;;15.58;100.00;101810.25;5005831;28;20053;-48
2023/06/16 01:31:31;;;;;;;14.93;13.43;;;;;;;15.27;100.00;101764.50;5013929;28;20060;-48
2023/06/16 01:33:59;;;;;;;14.30;12.90;;;;;;;15.27;100.00;101764.50;5014010;28;20109;-47
2023/06/16 01:36:25;;;;;;;14.45;12.93;;;;;;;15.23;100.00;101768.22;4996167;28;20041;-50
2023/06/16 01:38:51;;;;;;;15.40;13.90;;;;;;;15.16;100.00;101756.97;4995475;28;20038;-51
2023/06/16 01:41:18;;;;;;;18.17;13.63;;;;;;;15.08;100.00;101757.25;4996276;28;20041;-50
2023/06/16 01:43:44;;;;;;;15.70;13.60;;;;;;;15.47;100.00;101831.84;5013786;28;20393;-47
2023/06/16 01:46:10;;;;;;;15.65;14.15;;;;;;;15.35;100.00;101810.22;4996012;28;20190;-49
2023/06/16 01:48:35;;;;;;;15.90;14.15;;;;;;;15.42;100.00;101828.47;4996144;28;20080;-48
2023/06/16 01:51:01;;;;;;;16.42;13.77;;;;;;;15.05;100.00;101775.91;4995984;28;20033;-51
2023/06/16 01:53:26;;;;;;;15.55;14.05;;;;;;;15.24;100.00;101810.56;5013529;28;20038;-52
2023/06/16 01:55:52;;;;;;;15.50;14.00;;;;;;;15.32;100.00;101835.06;4995010;28;20045;-48
2023/06/16 01:58:20;;;;;;;16.83;15.23;;;;;;;15.31;100.00;101833.31;5013441;28;20377;-49
2023/06/16 02:00:59;;;;;;;15.98;14.48;;;;;;;15.18;100.00;101805.50;5013691;28;20041;-50
2023/06/16 02:03:29;;;;;;;15.00;13.70;;;;;;;15.05;100.00;101817.47;4995990;28;20076;-47
2023/06/16 02:05:58;;;;;;;16.23;14.25;;;;;;;14.93;100.00;101780.78;5013494;28;20045;-47
2023/06/16 02:08:25;;;;;;;15.93;14.07;;;;;;;15.20;100.00;101828.41;4995835;28;20037;-48
2023/06/16 02:10:50;;;;;;;15.23;13.82;;;;;;;15.16;100.00;101829.44;4995910;28;20053;-47
2023/06/16 02:13:16;;;;;;;15.95;13.95;;;;;;;15.16;100.00;101833.88;4994775;28;20386;-46
2023/06/16 02:15:41;;;;;;;15.32;13.93;;;;;;;14.71;100.00;101754.16;4995982;28;20108;-49
2023/06/16 02:18:09;;;;;;;17.55;15.13;;;;;;;14.93;100.00;101796.69;5013310;28;20037;-48
2023/06/16 02:20:35;;;;;;;16.25;14.55;;;;;;;15.10;100.00;101832.31;4995676;28;20049;-50
2023/06/16 02:23:00;;;;;;;16.67;15.00;;;;;;;14.57;100.00;101740.53;5013133;28;20030;-48
2023/06/16 02:25:25;;;;;;;16.13;14.65;;;;;;;15.03;100.00;101828.13;5013347;28;20114;-49
2023/06/16 02:27:51;;;;;;;16.77;15.18;;;;;;;15.00;100.00;101827.38;5013212;28;20073;-47
2023/06/16 02:30:16;;;;;;;16.27;14.57;;;;;;;14.79;100.00;101785.72;5031770;28;20029;-50
2023/06/16 02:32:43;;;;;;;17.67;15.38;;;;;;;14.91;100.00;101814.44;5031961;28;20049;-49
2023/06/16 02:35:09;;;;;;;18.20;15.07;;;;;;;14.55;100.00;101745.88;5032337;28;20040;-49
2023/06/16 02:37:35;;;;;;;16.90;15.10;;;;;;;14.92;100.00;101811.72;5015043;28;20393;-48
2023/06/16 02:40:04;;;;;;;17.27;15.48;;;;;;;14.55;100.00;101764.44;5031576;28;20050;-50
2023/06/16 02:42:30;;;;;;;19.70;16.02;;;;;;;14.94;100.00;101828.47;5032695;28;20025;-50
2023/06/16 02:44:56;;;;;;;17.63;15.43;;;;;;;14.81;100.00;101807.72;5032403;28;20045;-49
2023/06/16 02:47:21;;;;;;;18.73;16.75;;;;;;;14.90;100.00;101828.59;5031254;28;20117;-49
2023/06/16 02:49:46;;;;;;;17.58;15.65;;;;;;;14.80;100.00;101804.19;5031309;28;20493;-47
2023/06/16 02:52:12;;;;;;;19.63;16.23;;;;;;;14.50;100.00;101758.44;5032394;28;20037;-48
2023/06/16 02:54:38;;;;;;;17.48;15.88;;;;;;;14.43;100.00;101748.09;5032285;28;20038;-49
2023/06/16 02:57:05;;;;;;;19.20;17.27;;;;;;;14.40;100.00;101753.47;5014804;28;20037;-52
2023/06/16 02:59:31;;;;;;;18.55;16.65;;;;;;;14.36;100.00;101760.66;5014787;28;20037;-50
2023/06/16 03:01:56;;;;;;;18.90;17.08;;;;;;;14.72;100.00;101824.81;5032300;28;20037;-51
2023/06/16 03:04:21;;;;;;;20.63;17.52;;;;;;;14.27;100.00;101749.50;5031036;28;20029;-49
2023/06/16 03:06:47;;;;;;;19.15;17.35;;;;;;;14.64;100.00;101826.84;5030793;28;20107;-48
2023/06/16 03:09:12;;;;;;;19.23;17.42;;;;;;;14.13;100.00;101749.09;5032299;28;20037;-51
2023/06/16 03:11:37;;;;;;;18.20;16.48;;;;;;;13.96;100.00;101725.78;5014433;28;20069;-50
2023/06/16 03:14:03;;;;;;;17.60;16.00;;;;;;;14.16;100.00;101757.78;5032300;28;20076;-50
2023/06/16 03:16:29;;;;;;;18.42;16.80;;;;;;;14.45;100.00;101841.59;5031998;28;20073;-51
2023/06/16 03:18:55;;;;;;;18.15;16.55;;;;;;;14.01;100.00;101753.84;5031932;28;20037;-50
2023/06/16 03:21:20;;;;;;;18.05;16.42;;;;;;;13.98;100.00;101756.56;5013276;28;20480;-50
2023/06/16 03:23:46;;;;;;;17.27;15.65;;;;;;;13.96;100.00;101762.84;5031780;28;20059;-51
2023/06/16 03:26:12;;;;;;;17.17;15.65;;;;;;;13.92;100.00;101761.22;5031978;28;20116;-53
2023/06/16 03:28:38;;;;;;;16.65;15.15;;;;;;;14.33;100.00;101834.91;5031988;28;20049;-53
2023/06/16 03:31:04;;;;;;;16.55;14.82;;;;;;;14.20;100.00;101815.03;5032242;28;20128;-54
2023/06/16 03:33:31;;;;;;;15.30;14.00;;;;;;;14.15;100.00;101810.78;5014897;28;20045;-52
2023/06/16 03:35:56;;;;;;;16.52;14.82;;;;;;;13.78;100.00;101751.03;5031871;28;20043;-46
2023/06/16 03:38:22;;;;;;;15.07;13.50;;;;;;;14.04;100.00;101800.53;5031100;28;20065;-49
2023/06/16 03:40:47;;;;;;;15.82;14.20;;;;;;;13.80;100.00;101762.47;5014495;28;20492;-51
2023/06/16 03:43:13;;;;;;;14.65;13.40;;;;;;;14.21;100.00;101851.19;5015996;28;20044;-50
2023/06/16 03:45:38;;;;;;;14.90;13.57;;;;;;;13.68;100.00;101752.25;5035948;28;20079;-49
2023/06/16 03:48:04;;;;;;;15.38;13.98;;;;;;;14.20;100.00;101845.94;5035297;28;20642;-49
2023/06/16 03:50:29;;;;;;;13.65;12.25;;;;;;;13.74;100.00;101770.59;5016563;28;20045;-48
2023/06/16 03:52:55;;;;;;;14.70;13.18;;;;;;;14.16;100.00;101841.63;5034318;28;20120;-48
2023/06/16 03:55:20;;;;;;;15.85;14.05;;;;;;;14.18;100.00;101846.00;5011854;28;20087;-51
2023/06/16 03:57:46;;;;;;;14.77;13.38;;;;;;;14.10;100.00;101832.97;5014944;28;20408;-52
2023/06/16 04:00:12;;;;;;;14.10;12.70;;;;;;;14.20;100.00;101860.03;5014141;28;20030;-51
2023/06/16 04:02:37;;;;;;;14.43;13.02;;;;;;;14.06;100.00;101827.84;5030351;28;20453;-49
2023/06/16 04:05:03;;;;;;;13.88;12.57;;;;;;;14.20;100.00;101843.28;5016885;28;20112;-49
2023/06/16 04:07:30;;;;;;;14.55;13.15;;;;;;;13.89;100.00;101793.09;5035081;28;20049;-47
2023/06/16 04:09:55;;;;;;;13.90;12.45;;;;;;;13.85;100.00;101781.72;5034108;28;20021;-49
2023/06/16 04:12:20;;;;;;;12.65;11.50;;;;;;;14.29;100.00;101848.28;5033917;28;20029;-50
2023/06/16 04:14:46;;;;;;;13.73;12.13;;;;;;;14.33;100.00;101850.81;5033677;28;20045;-49
2023/06/16 04:17:11;;;;;;;12.93;11.63;;;;;;;14.39;100.00;101850.63;5035229;28;20044;-49
2023/06/16 04:19:36;;;;;;;13.05;11.65;;;;;;;14.44;100.00;101854.00;5033674;28;20112;-49
2023/06/16 04:22:02;;;;;;;12.07;10.93;;;;;;;14.12;100.00;101790.56;5034370;28;20049;-48
2023/06/16 04:24:27;;;;;;;13.45;11.55;;;;;;;14.14;100.00;101782.56;5034967;28;20116;-48
2023/06/16 04:26:58;;;;;;;13.63;10.65;;;;;;;14.51;100.00;101839.63;5034632;28;20349;-48
2023/06/16 04:29:25;;;;;;;12.18;11.02;;;;;;;14.60;100.00;101847.28;5004910;28;20042;-49
2023/06/16 04:31:51;;;;;;;13.32;11.23;;;;;;;14.27;100.00;101789.22;5004350;28;20073;-48
2023/06/16 04:34:18;;;;;;;11.05;10.00;;;;;;;14.30;100.00;101781.19;4994625;28;20474;-50
2023/06/16 04:36:44;;;;;;;13.98;10.45;;;;;;;14.74;100.00;101851.28;5013593;28;20095;-50
2023/06/16 04:39:11;;;;;;;10.98;9.88;;;;;;;14.73;100.00;101833.63;5014001;28;20034;-49
2023/06/16 04:41:37;;;;;;;11.55;10.55;;;;;;;14.85;100.00;101852.63;4981095;28;20091;-49
2023/06/16 04:44:03;;;;;;;11.07;9.73;;;;;;;14.81;100.00;101853.66;5015053;28;20030;-51
2023/06/16 04:46:28;;;;;;;12.15;10.18;;;;;;;14.88;100.00;101849.88;5014739;28;20487;-50
2023/06/16 04:48:54;;;;;;;10.30;8.88;;;;;;;14.62;100.00;101789.78;5008786;28;20026;-54
2023/06/16 04:51:19;;;;;;;10.48;9.35;;;;;;;14.74;100.00;101793.81;5014432;28;20038;-48
2023/06/16 04:53:44;;;;;;;12.95;8.90;;;;;;;15.26;100.00;101869.75;5013819;28;20040;-51
2023/06/16 04:56:10;;;;;;;9.23;8.38;;;;;;;15.27;100.00;101854.69;5013723;28;20038;-49
2023/06/16 04:58:35;;;;;;;8.85;8.07;;;;;;;15.47;100.00;101865.50;5014492;28;20037;-50
2023/06/16 05:01:00;;;;;;;8.68;7.40;;;;;;;15.07;100.00;101795.28;5008389;28;20129;-51
2023/06/16 05:03:26;;;;;;;8.38;7.57;;;;;;;15.62;100.00;101873.75;4997004;28;20037;-47
2023/06/16 05:05:51;;;;;;;9.30;7.40;;;;;;;15.69;100.00;101877.06;5014414;28;20065;-49
2023/06/16 05:08:18;;;;;;;8.38;7.43;;;;;;;15.76;100.00;101878.59;5014636;28;20034;-49
2023/06/16 05:10:43;;;;;;;7.88;7.05;;;;;;;15.80;100.00;101874.00;5014650;28;20116;-50
2023/06/16 05:13:08;;;;;;;7.85;6.60;;;;;;;15.84;100.00;101868.53;5008940;28;20113;-49
2023/06/16 05:15:34;;;;;;;7.35;6.60;;;;;;;15.92;100.00;101881.50;5009064;28;20030;-48
2023/06/16 05:17:59;;;;;;;7.85;6.57;;;;;;;15.63;100.00;101822.41;5014217;28;20517;-47
2023/06/16 05:20:25;;;;;;;6.80;5.78;;;;;;;16.07;100.00;101880.91;5014214;28;20390;-52
2023/06/16 05:22:50;;;;;;;7.22;6.63;;;;;;;16.20;100.00;101887.47;5014241;28;20113;-51
2023/06/16 05:25:16;;;;;;;6.10;5.47;;;;;;;16.33;100.00;101900.25;5014123;28;20042;-49
2023/06/16 05:27:42;;;;;;;7.50;5.88;;;;;;;16.49;100.00;101883.69;5013982;28;20075;-51
2023/06/16 05:30:08;;;;;;;6.68;5.72;;;;;;;16.23;100.00;101818.28;5032598;28;20412;-50
2023/06/16 05:32:33;;;;;;;6.10;5.50;;;;;;;16.81;100.00;101892.09;5031616;28;20049;-48
2023/06/16 05:34:58;;;;;;;9.90;6.03;;;;;;;16.91;100.00;101881.94;5033260;28;20033;-49
2023/06/16 05:37:24;;;;;;;6.95;5.97;;;;;;;17.13;100.00;101908.50;5033520;28;20033;-47
2023/06/16 05:39:50;;;;;;;7.60;5.90;;;;;;;17.21;100.00;101888.63;5015839;28;20473;-50
2023/06/16 05:42:16;;;;;;;7.68;5.72;;;;;;;17.39;100.00;101909.13;5027160;28;20076;-52
2023/06/16 05:44:42;;;;;;;8.23;6.50;;;;;;;17.52;100.00;101909.44;5033571;28;20493;-53
2023/06/16 05:47:08;;;;;;;10.98;5.90;;;;;;;17.63;100.00;101914.34;5016035;28;20111;-51
2023/06/16 05:49:33;;;;;;;6.63;5.93;;;;;;;17.66;100.00;101900.88;5027615;28;20473;-48
2023/06/16 05:51:59;;;;;;;12.10;5.95;;;;;;;17.85;100.00;101912.41;5033201;28;20029;-52
2023/06/16 05:54:24;;;;;;;7.72;6.05;;;;;;;17.92;100.00;101906.72;5032089;28;20032;-53
2023/06/16 05:56:50;;;;;;;7.00;5.93;;;;;;;17.62;100.00;101849.56;5033170;28;20029;-51
2023/06/16 05:59:15;;;;;;;6.95;6.25;;;;;;;17.77;100.00;101850.66;5015275;28;20037;-50
2023/06/16 06:01:40;;;;;;;7.80;6.50;;;;;;;18.20;100.00;101910.78;5015416;28;20041;-53
2023/06/16 06:04:06;;;;;;;7.60;6.50;;;;;;;18.32;100.00;101913.75;5033076;28;20042;-51
2023/06/16 06:06:31;;;;;;;7.88;5.85;;;;;;;18.46;100.00;101921.94;5032009;28;20041;-48
2023/06/16 06:08:56;;;;;;;7.03;6.15;;;;;;;18.30;100.00;101883.63;5033216;28;20491;-47
2023/06/16 06:11:22;;;;;;;7.78;5.40;;;;;;;18.64;100.00;101924.69;5033170;28;20120;-51
2023/06/16 06:13:47;;;;;;;5.47;4.97;;;;;;;18.78;100.00;101925.75;5033175;28;20465;-48
2023/06/16 06:16:13;;;;;;;6.38;5.30;;;;;;;18.92;100.00;101922.38;5033031;28;20054;-47
2023/06/16 06:18:38;;;;;;;8.88;5.60;;;;;;;19.02;100.00;101921.00;5014986;28;20063;-53
2023/06/16 06:21:04;;;;;;;5.43;4.95;;;;;;;18.79;100.00;101868.78;5033161;28;20041;-51
2023/06/16 06:23:29;;;;;;;5.55;5.05;;;;;;;18.79;100.00;101854.59;5014177;28;20041;-50
2023/06/16 06:25:55;;;;;;;5.55;5.03;;;;;;;19.27;100.00;101933.94;5032997;28;20034;-50
2023/06/16 06:28:23;;;;;;;7.57;5.55;;;;;;;19.32;100.00;101932.75;5032621;28;20069;-53
2023/06/16 06:30:48;;;;;;;6.82;5.18;;;;;;;19.07;100.00;101870.91;5032446;28;20140;-50
2023/06/16 06:33:13;;;;;;;4.93;4.50;;;;;;;19.28;100.00;101893.84;5032950;28;20525;-49
2023/06/16 06:35:39;;;;;;;6.25;4.68;;;;;;;19.59;100.00;101933.16;5015102;28;20385;-50
2023/06/16 06:38:04;;;;;;;5.78;4.28;;;;;;;19.29;100.00;101868.88;5031700;28;20388;-48
2023/06/16 06:40:31;;;;;;;7.53;5.18;;;;;;;19.80;100.00;101941.84;5015064;28;20334;-50
2023/06/16 06:42:57;;;;;;;4.43;4.03;;;;;;;19.93;100.00;101943.81;5032426;28;20534;-50
2023/06/16 06:45:22;;;;;;;4.93;4.20;;;;;;;19.96;100.00;101934.75;5031889;28;20033;-50
2023/06/16 06:47:47;;;;;;;6.28;3.88;;;;;;;20.00;100.00;101917.59;5032317;28;20095;-54
2023/06/16 06:50:13;;;;;;;6.55;4.60;;;;;;;20.16;100.00;101948.78;5032338;28;20507;-48
2023/06/16 06:52:38;;;;;;;5.63;4.10;;;;;;;20.06;100.00;101942.19;5031209;28;20044;-50
2023/06/16 06:55:04;;;;;;;6.70;4.18;;;;;;;19.96;100.00;101892.88;5031031;28;20045;-50
2023/06/16 06:57:29;;;;;;;5.45;3.97;;;;;;;20.37;100.00;101964.63;5031099;28;20037;-50
2023/06/16 06:59:55;;;;;;;9.52;4.70;;;;;;;20.51;100.00;101962.91;4998410;28;20112;-52
2023/06/16 07:02:21;;;;;;;6.80;4.22;;;;;;;20.31;100.00;101901.66;5032136;28;20029;-49
2023/06/16 07:04:47;;;;;;;6.40;4.15;;;;;;;20.76;100.00;101959.69;5032216;28;20408;-52
2023/06/16 07:07:13;;;;;;;5.47;3.70;;;;;;;20.86;100.00;101960.03;5030828;28;20037;-50
2023/06/16 07:09:38;;;;;;;5.00;3.35;;;;;;;20.76;100.00;101963.22;5031968;28;20447;-48
2023/06/16 07:12:04;;;;;;;6.80;3.45;;;;;;;20.42;100.00;101882.31;5032066;28;20275;-51
2023/06/16 07:14:30;;;;;;;4.45;3.90;;;;;;;21.06;100.00;101965.97;5014564;28;20060;-52
2023/06/16 07:16:57;;;;;;;7.30;3.20;;;;;;;21.22;100.00;101963.25;5032532;28;20532;-53
2023/06/16 07:19:26;;;;;;;4.45;3.50;;;;;;;21.38;100.00;101966.78;5021149;28;20111;-49
2023/06/16 07:21:53;;;;;;;4.50;3.20;;;;;;;21.48;100.00;101957.22;5021046;28;20041;-51
2023/06/16 07:24:19;;;;;;;3.53;3.17;;;;;;;21.46;100.00;101942.19;5038615;28;20037;-52
2023/06/16 07:26:45;;;;;;;6.38;3.50;;;;;;;21.38;100.00;101921.25;5021221;28;20461;-50
2023/06/16 07:29:10;;;;;;;6.05;3.53;;;;;;;21.33;100.00;101899.22;5034333;28;20069;-49
2023/06/16 07:31:35;;;;;;;6.25;3.45;;;;;;;21.95;100.00;101967.75;5038246;28;20049;-49
2023/06/16 07:34:01;;;;;;;3.97;3.55;;;;;;;21.99;100.00;101969.28;5038440;28;20033;-51
2023/06/16 07:36:26;;;;;;;3.95;3.55;;;;;;;21.89;100.00;101903.78;5038285;28;20469;-51
2023/06/16 07:38:51;;;;;;;4.28;3.80;;;;;;;22.20;100.00;101918.81;5038407;28;20029;-51
2023/06/16 07:41:17;;;;;;;9.15;3.40;;;;;;;22.91;100.00;101983.97;5038097;28;20037;-50
2023/06/16 07:43:42;;;;;;;3.95;3.40;;;;;;;23.06;100.00;101980.22;5020285;28;20469;-50
2023/06/16 07:46:07;;;;;;;5.68;3.45;;;;;;;23.20;100.00;101988.25;5038206;28;20485;-51
2023/06/16 07:48:33;;;;;;;5.50;3.05;;;;;;;23.74;100.00;101983.66;5038178;28;20033;-49
2023/06/16 07:50:58;;;;;;;5.93;3.53;;;;;;;24.23;100.00;101994.53;5020433;28;20030;-52
2023/06/16 07:53:24;;;;;;;8.77;2.85;;;;;;;24.23;100.00;101948.78;5038258;28;20041;-49
2023/06/16 07:55:49;;;;;;;3.60;2.92;;;;;;;24.77;100.00;101999.59;5038195;28;20044;-48
2023/06/16 07:58:15;;;;;;;4.82;2.88;;;;;;;25.19;100.00;101994.59;5038318;28;20388;-51
2023/06/16 08:00:40;;;;;;;4.40;3.15;;;;;;;25.67;100.00;101976.53;5020365;28;20037;-51
2023/06/16 08:03:06;;;;;;;4.20;3.35;;;;;;;25.88;100.00;101947.03;5038257;28;20120;-50
2023/06/16 08:05:31;;;;;;;4.35;3.08;;;;;;;26.35;100.00;102002.66;5037920;28;20036;-50
2023/06/16 08:07:56;;;;;;;4.60;2.97;;;;;;;26.42;100.00;101952.56;5038302;28;20073;-50
2023/06/16 08:10:23;;;;;;;3.63;3.28;;;;;;;26.77;100.00;101955.91;5019900;28;20068;-49
2023/06/16 08:12:49;;;;;;;6.15;2.95;;;;;;;27.09;97.69;101936.19;5037755;28;20037;-48
2023/06/16 08:15:15;;;;;;;3.47;2.92;;;;;;;27.71;100.00;101974.09;5037776;28;20400;-49
2023/06/16 08:17:41;;;;;;;4.15;3.40;;;;;;;27.56;100.00;101948.38;5020437;28;20060;-52
2023/06/16 08:20:07;;;;;;;4.57;3.22;;;;;;;27.88;91.55;101993.31;5037979;28;20048;-50
2023/06/16 08:22:32;;;;;;;6.00;3.95;;;;;;;27.86;100.00;101965.53;5037944;28;20033;-52
2023/06/16 08:24:58;;;;;;;6.35;3.17;;;;;;;27.95;99.17;101988.22;5037812;28;20461;-51
2023/06/16 08:27:25;;;;;;;4.82;3.15;;;;;;;28.29;94.23;101981.56;5037962;28;20025;-51
2023/06/16 08:29:50;;;;;;;5.22;3.58;;;;;;;28.38;95.12;101996.13;5034677;28;20132;-50
2023/06/16 08:32:16;;;;;;;3.40;3.10;;;;;;;28.05;93.54;101943.13;5034752;28;20128;-50
2023/06/16 08:34:41;;;;;;;3.20;2.65;;;;;;;27.69;89.52;101932.81;5035096;28;20045;-48
2023/06/16 08:37:07;;;;;;;3.55;2.97;;;;;;;27.63;91.85;101987.44;5034969;28;20064;-51
2023/06/16 08:39:32;;;;;;;4.28;3.28;;;;;;;28.10;95.59;101980.63;5017171;28;20392;-51
2023/06/16 08:41:58;;;;;;;4.63;3.17;;;;;;;27.75;92.13;101976.44;5034743;28;20114;-52
2023/06/16 08:44:24;;;;;;;4.60;3.45;;;;;;;27.51;88.16;101980.38;5016799;28;20037;-54
2023/06/16 08:46:50;;;;;;;3.60;3.10;;;;;;;27.99;100.00;101984.25;5033701;28;20108;-51
2023/06/16 08:49:16;;;;;;;3.28;2.83;;;;;;;28.56;97.29;101983.66;5017106;28;20132;-52
2023/06/16 08:51:47;;;;;;;4.78;3.10;;;;;;;28.91;98.86;101983.19;5033430;28;20086;-50
2023/06/16 08:54:13;;;;;;;3.97;3.42;;;;;;;28.70;93.27;101928.25;5034416;28;20034;-50
2023/06/16 08:56:40;;;;;;;3.95;3.55;;;;;;;28.66;79.67;101932.25;5033947;28;20029;-53
2023/06/16 08:59:05;;;;;;;3.38;2.90;;;;;;;29.31;87.90;101948.72;5016675;28;20064;-49
2023/06/16 09:01:33;;;;;;;3.67;3.25;;;;;;;29.63;90.71;101980.09;5034152;28;20037;-50
2023/06/16 09:03:59;;;;;;;3.60;3.30;;;;;;;29.73;90.35;101980.91;5016978;28;20108;-51
2023/06/16 09:06:25;;;;;;;4.95;3.25;;;;;;;29.56;76.67;101948.13;5034595;28;20127;-52
2023/06/16 09:08:52;;;;;;;3.92;3.20;;;;;;;29.80;81.22;101961.19;5016313;28;20038;-49
2023/06/16 09:11:27;;;;;;;5.25;3.10;;;;;;;29.76;90.77;101981.50;5032823;28;20053;-49
2023/06/16 09:13:52;;;;;;;5.25;3.72;;;;;;;29.82;80.04;101986.38;5033958;28;20069;-52
2023/06/16 09:16:21;;;;;;;3.08;2.75;;;;;;;29.88;75.38;101984.91;5016239;28;20095;-49
2023/06/16 09:18:47;;;;;;;3.65;2.90;;;;;;;29.99;68.81;101923.16;5014562;28;20044;-52
2023/06/16 09:21:18;;;;;;;4.47;3.25;;;;;;;30.08;69.02;101984.72;5033375;28;20036;-51
2023/06/16 09:23:43;;;;;;;3.70;3.35;;;;;;;29.53;73.82;101950.25;5016037;28;20116;-50
2023/06/16 09:26:11;;;;;;;3.78;3.38;;;;;;;29.55;78.85;101946.41;5033847;28;20065;-52
2023/06/16 09:28:37;;;;;;;3.72;3.30;;;;;;;29.48;76.85;101982.41;5033765;28;20063;-47
2023/06/16 09:31:08;;;;;;;3.30;3.00;;;;;;;29.70;76.98;101930.50;5016079;28;20037;-51
2023/06/16 09:33:34;;;;;;;3.05;2.85;;;;;;;29.28;71.56;101980.69;5033877;28;20116;-51
2023/06/16 09:35:59;;;;;;;4.97;3.15;;;;;;;29.14;74.93;101926.84;5033545;28;20071;-49
2023/06/16 09:38:25;;;;;;;3.13;2.92;;;;;;;29.71;78.50;101981.09;5015672;28;20022;-51
2023/06/16 09:40:50;;;;;;;5.10;3.22;;;;;;;29.76;74.97;101929.94;5033330;28;20116;-49
2023/06/16 09:43:16;;;;;;;3.40;3.10;;;;;;;30.04;75.94;101964.28;5033439;28;20041;-49
2023/06/16 09:45:44;;;;;;;4.28;3.13;;;;;;;29.55;71.11;101918.41;5033080;28;20041;-50
2023/06/16 09:48:10;;;;;;;3.53;2.97;;;;;;;30.44;88.91;101983.03;5033210;28;20044;-52
2023/06/16 09:50:37;;;;;;;3.92;3.17;;;;;;;30.91;87.11;101974.72;5033420;28;20037;-52
2023/06/16 09:53:07;;;;;;;3.70;3.40;;;;;;;30.06;73.82;101977.72;5033105;28;20504;-48
2023/06/16 09:55:37;;;;;;;4.13;3.25;;;;;;;29.64;80.97;101920.25;5033310;28;20099;-52
2023/06/16 09:58:02;;;;;;;6.10;3.17;;;;;;;29.41;76.12;101914.31;5033339;28;20034;-50
2023/06/16 10:00:30;;;;;;;3.28;3.00;;;;;;;29.65;87.47;101970.81;5033184;28;20026;-47
2023/06/16 10:02:56;;;;;;;3.88;3.58;;;;;;;29.34;82.67;101977.38;5032882;28;20044;-48
2023/06/16 10:05:24;;;;;;;6.47;3.28;;;;;;;28.83;84.96;101958.66;5031821;28;20384;-47
2023/06/16 10:07:51;;;;;;;5.30;3.25;;;;;;;28.92;85.50;101912.59;5015254;28;20029;-51
2023/06/16 10:10:22;;;;;;;4.63;3.80;;;;;;;29.65;80.06;101913.81;5033009;28;20444;-52
2023/06/16 10:12:50;;;;;;;3.97;3.55;;;;;;;30.59;84.73;101945.34;5015514;28;20033;-49
2023/06/16 10:15:27;;;;;;;4.30;3.35;;;;;;;30.52;84.31;101911.63;5015532;28;20037;-52
2023/06/16 10:18:03;;;;;;;4.57;3.55;;;;;;;31.14;80.27;101954.25;5015160;28;20033;-51
2023/06/16 10:20:30;;;;;;;3.38;3.17;;;;;;;31.04;79.84;101945.31;5032689;28;20484;-49
2023/06/16 10:22:56;;;;;;;5.00;3.63;;;;;;;31.46;81.77;101949.09;5032775;28;20444;-48
2023/06/16 10:25:21;;;;;;;3.25;2.95;;;;;;;31.56;61.63;101949.00;5032566;28;20017;-48
2023/06/16 10:27:48;;;;;;;6.03;3.40;;;;;;;31.90;70.38;101954.53;5033004;28;20040;-51
2023/06/16 10:30:16;;;;;;;3.35;3.03;;;;;;;31.95;63.54;101954.88;4999183;28;20058;-48
2023/06/16 10:32:55;;;;;;;5.82;3.17;;;;;;;30.50;57.78;101947.06;4995576;28;20034;-51
2023/06/16 10:35:21;;;;;;;3.60;2.75;;;;;;;30.92;58.86;101957.38;5011891;28;20038;-47
2023/06/16 10:37:54;;;;;;;5.68;3.13;;;;;;;31.00;59.45;101939.31;5011874;28;20044;-49
2023/06/16 10:40:21;;;;;;;6.57;3.28;;;;;;;31.18;64.54;101926.56;5012882;28;20034;-51
2023/06/16 10:42:47;;;;;;;4.15;3.03;;;;;;;31.36;49.84;101921.09;5012918;28;20038;-49
2023/06/16 10:45:26;;;;;;;3.53;2.95;;;;;;;31.45;44.86;101949.22;4995158;28;20037;-48
2023/06/16 10:47:58;;;;;;;4.47;3.00;;;;;;;31.47;44.86;101944.47;5012920;28;20026;-50
2023/06/16 10:50:30;;;;;;;6.18;3.65;;;;;;;30.82;39.66;101929.44;4995236;28;20018;-49
2023/06/16 10:52:56;;;;;;;4.00;3.53;;;;;;;31.57;44.37;101948.00;5012013;28;20393;-49
2023/06/16 10:55:28;;;;;;;3.75;3.40;;;;;;;31.58;49.08;101947.00;4994928;28;20034;-52
2023/06/16 10:57:59;;;;;;;6.22;3.13;;;;;;;31.85;45.89;101935.94;5012400;28;20037;-52
2023/06/16 11:00:27;;;;;;;4.88;3.00;;;;;;;31.79;52.70;101931.13;4995068;28;20029;-52
2023/06/16 11:02:57;;;;;;;3.58;3.28;;;;;;;31.69;47.92;101938.56;5011471;28;20108;-49
2023/06/16 11:05:23;;;;;;;3.83;2.97;;;;;;;31.68;51.62;101943.16;5012477;28;20048;-48
2023/06/16 11:08:01;;;;;;;4.28;3.00;;;;;;;31.53;51.36;101931.13;5011216;28;20485;-52
2023/06/16 11:10:26;;;;;;;3.42;3.13;;;;;;;32.22;44.04;101941.94;4995433;28;20072;-51